sensor_id;sensor_type;location;lat;lon;timestamp;P1;P2;P0
44933;PMS3003;30667;43.614;1.442;2023-08-01T00:01:30;5.20;5.00;2.40
44933;PMS3003;30667;43.614;1.442;2023-08-01T00:03:56;5.50;5.50;2.75
44933;PMS3003;30667;43.614;1.442;2023-08-01T00:06:21;6.25;6.00;3.00
44933;PMS3003;30667;43.614;1.442;2023-08-01T00:08:47;6.00;6.00;3.00
44933;PMS3003;30667;43.614;1.442;2023-08-01T00:11:13;7.60;7.00;3.00
44933;PMS3003;30667;43.614;1.442;2023-08-01T00:13:42;8.80;7.80;3.20
44933;PMS3003;30667;43.614;1.442;2023-08-01T00:16:08;8.20;6.60;2.60
44933;PMS3003;30667;43.614;1.442;2023-08-01T00:18:33;4.75;4.75;2.50
44933;PMS3003;30667;43.614;1.442;2023-08-01T00:20:59;6.00;6.00;2.60
44933;PMS3003;30667;43.614;1.442;2023-08-01T00:23:25;8.25;6.00;2.75
44933;PMS3003;30667;43.614;1.442;2023-08-01T00:25:50;5.75;5.25;3.00
44933;PMS3003;30667;43.614;1.442;2023-08-01T00:28:19;6.20;5.40;2.40
44933;PMS3003;30667;43.614;1.442;2023-08-01T00:30:46;5.80;5.60;2.60
44933;PMS3003;30667;43.614;1.442;2023-08-01T00:33:12;6.75;6.00;2.00
44933;PMS3003;30667;43.614;1.442;2023-08-01T00:35:38;6.00;6.00;2.00
44933;PMS3003;30667;43.614;1.442;2023-08-01T00:38:03;5.50;4.75;2.50
44933;PMS3003;30667;43.614;1.442;2023-08-01T00:40:32;6.00;6.00;2.75
44933;PMS3003;30667;43.614;1.442;2023-08-01T00:42:58;6.60;6.40;3.20
44933;PMS3003;30667;43.614;1.442;2023-08-01T00:45:24;8.00;7.00;3.00
44933;PMS3003;30667;43.614;1.442;2023-08-01T00:47:53;6.20;5.60;3.00
44933;PMS3003;30667;43.614;1.442;2023-08-01T00:50:20;5.00;5.00;3.00
44933;PMS3003;30667;43.614;1.442;2023-08-01T00:52:47;6.00;6.00;2.60
44933;PMS3003;30667;43.614;1.442;2023-08-01T00:55:14;7.00;6.00;3.00
44933;PMS3003;30667;43.614;1.442;2023-08-01T00:57:40;7.20;7.00;3.60
44933;PMS3003;30667;43.614;1.442;2023-08-01T01:00:06;7.00;6.00;3.00
44933;PMS3003;30667;43.614;1.442;2023-08-01T01:02:32;7.00;7.00;4.00
44933;PMS3003;30667;43.614;1.442;2023-08-01T01:04:58;6.40;6.00;3.00
44933;PMS3003;30667;43.614;1.442;2023-08-01T01:07:23;6.50;6.50;4.00
44933;PMS3003;30667;43.614;1.442;2023-08-01T01:09:49;5.25;5.00;2.50
44933;PMS3003;30667;43.614;1.442;2023-08-01T01:12:15;8.00;6.80;3.60
44933;PMS3003;30667;43.614;1.442;2023-08-01T01:14:41;6.25;6.00;3.00
44933;PMS3003;30667;43.614;1.442;2023-08-01T01:17:06;6.25;6.00;2.00
44933;PMS3003;30667;43.614;1.442;2023-08-01T01:19:32;7.00;5.50;3.00
44933;PMS3003;30667;43.614;1.442;2023-08-01T01:21:57;7.50;7.00;2.50
44933;PMS3003;30667;43.614;1.442;2023-08-01T01:24:23;7.25;5.75;2.75
44933;PMS3003;30667;43.614;1.442;2023-08-01T01:26:50;6.60;6.60;3.60
44933;PMS3003;30667;43.614;1.442;2023-08-01T01:29:17;8.20;7.00;3.00
44933;PMS3003;30667;43.614;1.442;2023-08-01T01:31:44;9.00;8.20;4.00
44933;PMS3003;30667;43.614;1.442;2023-08-01T01:34:10;7.40;6.00;3.00
44933;PMS3003;30667;43.614;1.442;2023-08-01T01:36:36;6.80;6.80;4.00
44933;PMS3003;30667;43.614;1.442;2023-08-01T01:39:02;7.75;7.00;4.00
44933;PMS3003;30667;43.614;1.442;2023-08-01T01:41:27;8.00;8.00;4.00
44933;PMS3003;30667;43.614;1.442;2023-08-01T01:43:53;7.00;7.00;3.00
44933;PMS3003;30667;43.614;1.442;2023-08-01T01:46:18;7.25;6.25;4.00
44933;PMS3003;30667;43.614;1.442;2023-08-01T01:48:43;6.75;6.50;3.00
44933;PMS3003;30667;43.614;1.442;2023-08-01T01:51:09;8.25;8.25;4.25
44933;PMS3003;30667;43.614;1.442;2023-08-01T01:53:34;7.00;7.00;4.00
44933;PMS3003;30667;43.614;1.442;2023-08-01T01:55:59;9.25;8.25;4.00
44933;PMS3003;30667;43.614;1.442;2023-08-01T01:58:25;10.00;9.50;4.75
44933;PMS3003;30667;43.614;1.442;2023-08-01T02:00:50;8.50;8.50;4.50
44933;PMS3003;30667;43.614;1.442;2023-08-01T02:03:16;8.75;7.50;3.75
44933;PMS3003;30667;43.614;1.442;2023-08-01T02:05:41;9.00;8.00;5.00
44933;PMS3003;30667;43.614;1.442;2023-08-01T02:08:06;8.00;8.00;5.00
44933;PMS3003;30667;43.614;1.442;2023-08-01T02:10:32;7.75;7.75;4.00
44933;PMS3003;30667;43.614;1.442;2023-08-01T02:12:57;10.25;9.50;6.00
44933;PMS3003;30667;43.614;1.442;2023-08-01T02:15:23;8.00;8.00;4.50
44933;PMS3003;30667;43.614;1.442;2023-08-01T02:17:48;11.00;10.00;5.00
44933;PMS3003;30667;43.614;1.442;2023-08-01T02:20:14;9.50;9.50;5.50
44933;PMS3003;30667;43.614;1.442;2023-08-01T02:22:39;12.25;9.75;5.00
44933;PMS3003;30667;43.614;1.442;2023-08-01T02:25:05;8.50;8.00;4.50
44933;PMS3003;30667;43.614;1.442;2023-08-01T02:27:30;7.00;7.00;4.00
44933;PMS3003;30667;43.614;1.442;2023-08-01T02:29:56;10.75;9.50;5.00
44933;PMS3003;30667;43.614;1.442;2023-08-01T02:32:21;11.50;9.00;5.00
44933;PMS3003;30667;43.614;1.442;2023-08-01T02:34:46;8.50;8.00;5.00
44933;PMS3003;30667;43.614;1.442;2023-08-01T02:37:12;10.00;9.00;5.00
44933;PMS3003;30667;43.614;1.442;2023-08-01T02:39:38;9.75;8.00;4.25
44933;PMS3003;30667;43.614;1.442;2023-08-01T02:42:03;10.00;9.50;5.00
44933;PMS3003;30667;43.614;1.442;2023-08-01T02:44:28;9.25;9.00;5.00
44933;PMS3003;30667;43.614;1.442;2023-08-01T02:46:54;11.00;9.25;5.00
44933;PMS3003;30667;43.614;1.442;2023-08-01T02:49:19;10.75;10.00;6.00
44933;PMS3003;30667;43.614;1.442;2023-08-01T02:51:45;9.50;9.50;4.25
44933;PMS3003;30667;43.614;1.442;2023-08-01T02:54:10;9.00;9.00;5.00
44933;PMS3003;30667;43.614;1.442;2023-08-01T02:56:35;9.00;8.00;4.25
44933;PMS3003;30667;43.614;1.442;2023-08-01T02:59:06;10.00;9.60;5.00
44933;PMS3003;30667;43.614;1.442;2023-08-01T03:01:35;10.80;10.60;5.40
44933;PMS3003;30667;43.614;1.442;2023-08-01T03:04:04;8.60;8.20;4.00
44933;PMS3003;30667;43.614;1.442;2023-08-01T03:06:31;9.00;9.00;5.60
44933;PMS3003;30667;43.614;1.442;2023-08-01T03:08:57;8.80;8.00;5.00
44933;PMS3003;30667;43.614;1.442;2023-08-01T03:11:23;11.00;9.25;5.00
44933;PMS3003;30667;43.614;1.442;2023-08-01T03:13:48;10.25;9.00;5.00
44933;PMS3003;30667;43.614;1.442;2023-08-01T03:16:13;9.00;8.00;5.00
44933;PMS3003;30667;43.614;1.442;2023-08-01T03:18:39;10.25;9.25;5.00
44933;PMS3003;30667;43.614;1.442;2023-08-01T03:21:04;8.25;8.00;5.00
44933;PMS3003;30667;43.614;1.442;2023-08-01T03:23:30;9.00;9.00;5.00
44933;PMS3003;30667;43.614;1.442;2023-08-01T03:25:55;10.00;10.00;5.25
44933;PMS3003;30667;43.614;1.442;2023-08-01T03:28:20;9.00;8.00;4.25
44933;PMS3003;30667;43.614;1.442;2023-08-01T03:30:46;9.50;9.00;5.25
44933;PMS3003;30667;43.614;1.442;2023-08-01T03:33:14;9.40;8.20;5.00
44933;PMS3003;30667;43.614;1.442;2023-08-01T03:35:40;10.00;9.00;5.00
44933;PMS3003;30667;43.614;1.442;2023-08-01T03:38:05;10.75;10.25;6.00
44933;PMS3003;30667;43.614;1.442;2023-08-01T03:40:31;8.50;8.50;5.00
44933;PMS3003;30667;43.614;1.442;2023-08-01T03:42:56;13.00;10.75;6.00
44933;PMS3003;30667;43.614;1.442;2023-08-01T03:45:22;11.25;9.00;5.75
44933;PMS3003;30667;43.614;1.442;2023-08-01T03:47:47;9.75;9.75;5.50
44933;PMS3003;30667;43.614;1.442;2023-08-01T03:50:12;9.75;9.75;5.00
44933;PMS3003;30667;43.614;1.442;2023-08-01T03:52:38;11.40;11.00;6.20
44933;PMS3003;30667;43.614;1.442;2023-08-01T03:55:04;11.25;10.00;6.00
44933;PMS3003;30667;43.614;1.442;2023-08-01T03:57:30;8.40;8.40;5.00
44933;PMS3003;30667;43.614;1.442;2023-08-01T03:59:58;12.00;11.00;6.00
44933;PMS3003;30667;43.614;1.442;2023-08-01T04:02:24;11.60;11.00;6.00
44933;PMS3003;30667;43.614;1.442;2023-08-01T04:04:49;10.00;9.50;5.50
44933;PMS3003;30667;43.614;1.442;2023-08-01T04:07:15;10.00;9.50;6.00
44933;PMS3003;30667;43.614;1.442;2023-08-01T04:09:40;12.50;11.50;5.50
44933;PMS3003;30667;43.614;1.442;2023-08-01T04:12:06;10.00;9.25;5.00
44933;PMS3003;30667;43.614;1.442;2023-08-01T04:14:32;9.00;8.75;5.00
44933;PMS3003;30667;43.614;1.442;2023-08-01T04:16:57;10.20;10.00;6.00
44933;PMS3003;30667;43.614;1.442;2023-08-01T04:19:23;9.00;8.25;5.00
44933;PMS3003;30667;43.614;1.442;2023-08-01T04:21:49;9.60;9.00;5.60
44933;PMS3003;30667;43.614;1.442;2023-08-01T04:24:15;9.50;8.00;5.25
44933;PMS3003;30667;43.614;1.442;2023-08-01T04:26:40;10.25;9.75;5.00
44933;PMS3003;30667;43.614;1.442;2023-08-01T04:29:06;8.50;8.00;5.00
44933;PMS3003;30667;43.614;1.442;2023-08-01T04:31:31;11.50;10.00;5.50
44933;PMS3003;30667;43.614;1.442;2023-08-01T04:33:56;8.00;8.00;4.25
44933;PMS3003;30667;43.614;1.442;2023-08-01T04:36:22;10.50;10.25;5.00
44933;PMS3003;30667;43.614;1.442;2023-08-01T04:38:47;10.75;10.75;5.00
44933;PMS3003;30667;43.614;1.442;2023-08-01T04:41:13;9.25;8.50;5.25
44933;PMS3003;30667;43.614;1.442;2023-08-01T04:43:38;8.25;8.00;4.00
44933;PMS3003;30667;43.614;1.442;2023-08-01T04:46:04;9.25;9.25;5.00
44933;PMS3003;30667;43.614;1.442;2023-08-01T04:48:29;10.00;8.25;4.75
44933;PMS3003;30667;43.614;1.442;2023-08-01T04:50:54;9.25;9.00;5.00
44933;PMS3003;30667;43.614;1.442;2023-08-01T04:53:20;9.75;9.00;5.00
44933;PMS3003;30667;43.614;1.442;2023-08-01T04:55:45;9.00;8.25;5.00
44933;PMS3003;30667;43.614;1.442;2023-08-01T04:58:10;9.00;9.00;4.75
44933;PMS3003;30667;43.614;1.442;2023-08-01T05:00:37;9.25;9.00;5.00
44933;PMS3003;30667;43.614;1.442;2023-08-01T05:03:03;9.20;8.00;4.80
44933;PMS3003;30667;43.614;1.442;2023-08-01T05:05:28;10.00;9.00;5.00
44933;PMS3003;30667;43.614;1.442;2023-08-01T05:07:53;9.50;9.00;4.00
44933;PMS3003;30667;43.614;1.442;2023-08-01T05:10:19;8.00;7.75;4.75
44933;PMS3003;30667;43.614;1.442;2023-08-01T05:12:44;9.25;8.50;4.00
44933;PMS3003;30667;43.614;1.442;2023-08-01T05:15:10;8.00;7.00;4.25
44933;PMS3003;30667;43.614;1.442;2023-08-01T05:17:35;10.00;10.00;6.00
44933;PMS3003;30667;43.614;1.442;2023-08-01T05:20:01;10.00;9.00;5.00
44933;PMS3003;30667;43.614;1.442;2023-08-01T05:22:28;7.80;7.80;5.00
44933;PMS3003;30667;43.614;1.442;2023-08-01T05:24:53;9.00;8.75;5.00
44933;PMS3003;30667;43.614;1.442;2023-08-01T05:27:19;9.00;8.00;4.50
44933;PMS3003;30667;43.614;1.442;2023-08-01T05:29:44;8.75;8.75;5.25
44933;PMS3003;30667;43.614;1.442;2023-08-01T05:32:10;10.50;10.00;5.75
44933;PMS3003;30667;43.614;1.442;2023-08-01T05:34:35;9.25;9.00;5.00
44933;PMS3003;30667;43.614;1.442;2023-08-01T05:37:00;9.00;8.75;5.25
44933;PMS3003;30667;43.614;1.442;2023-08-01T05:39:26;12.25;11.50;6.50
44933;PMS3003;30667;43.614;1.442;2023-08-01T05:41:51;9.00;9.00;5.25
44933;PMS3003;30667;43.614;1.442;2023-08-01T05:44:16;11.00;10.00;5.50
44933;PMS3003;30667;43.614;1.442;2023-08-01T05:46:42;10.75;10.50;6.00
44933;PMS3003;30667;43.614;1.442;2023-08-01T05:49:07;11.00;10.75;6.00
44933;PMS3003;30667;43.614;1.442;2023-08-01T05:51:33;11.50;10.50;5.50
44933;PMS3003;30667;43.614;1.442;2023-08-01T05:53:58;11.50;9.75;5.50
44933;PMS3003;30667;43.614;1.442;2023-08-01T05:56:23;10.25;9.25;6.00
44933;PMS3003;30667;43.614;1.442;2023-08-01T05:58:49;11.25;10.00;5.00
44933;PMS3003;30667;43.614;1.442;2023-08-01T06:01:15;12.00;12.00;6.20
44933;PMS3003;30667;43.614;1.442;2023-08-01T06:03:41;10.20;10.20;6.20
44933;PMS3003;30667;43.614;1.442;2023-08-01T06:06:07;11.00;10.00;6.00
44933;PMS3003;30667;43.614;1.442;2023-08-01T06:08:33;11.00;10.00;6.00
44933;PMS3003;30667;43.614;1.442;2023-08-01T06:10:58;10.00;9.75;6.00
44933;PMS3003;30667;43.614;1.442;2023-08-01T06:13:24;12.00;11.00;6.00
44933;PMS3003;30667;43.614;1.442;2023-08-01T06:15:49;11.25;11.00;6.50
44933;PMS3003;30667;43.614;1.442;2023-08-01T06:18:15;13.00;12.00;7.00
44933;PMS3003;30667;43.614;1.442;2023-08-01T06:20:40;12.50;10.50;6.00
44933;PMS3003;30667;43.614;1.442;2023-08-01T06:23:06;10.00;9.00;5.50
44933;PMS3003;30667;43.614;1.442;2023-08-01T06:25:31;13.00;12.00;7.00
44933;PMS3003;30667;43.614;1.442;2023-08-01T06:27:56;11.00;10.00;6.00
44933;PMS3003;30667;43.614;1.442;2023-08-01T06:30:22;9.75;9.50;5.75
44933;PMS3003;30667;43.614;1.442;2023-08-01T06:32:47;9.00;8.75;5.50
44933;PMS3003;30667;43.614;1.442;2023-08-01T06:35:13;11.50;10.75;6.00
44933;PMS3003;30667;43.614;1.442;2023-08-01T06:37:38;10.00;10.00;6.00
44933;PMS3003;30667;43.614;1.442;2023-08-01T06:40:04;12.00;10.00;5.50
44933;PMS3003;30667;43.614;1.442;2023-08-01T06:42:30;9.40;9.00;5.60
44933;PMS3003;30667;43.614;1.442;2023-08-01T06:44:56;10.50;9.75;5.00
44933;PMS3003;30667;43.614;1.442;2023-08-01T06:47:21;9.25;9.25;5.50
44933;PMS3003;30667;43.614;1.442;2023-08-01T06:49:46;9.25;9.25;5.50
44933;PMS3003;30667;43.614;1.442;2023-08-01T06:52:12;9.50;9.00;5.50
44933;PMS3003;30667;43.614;1.442;2023-08-01T06:54:37;10.75;9.75;5.00
44933;PMS3003;30667;43.614;1.442;2023-08-01T06:57:03;10.75;10.00;5.50
44933;PMS3003;30667;43.614;1.442;2023-08-01T06:59:29;9.80;9.00;5.00
44933;PMS3003;30667;43.614;1.442;2023-08-01T07:01:55;10.00;9.00;5.25
44933;PMS3003;30667;43.614;1.442;2023-08-01T07:04:20;9.25;8.50;5.00
44933;PMS3003;30667;43.614;1.442;2023-08-01T07:06:46;10.00;9.00;5.00
44933;PMS3003;30667;43.614;1.442;2023-08-01T07:09:11;8.00;8.00;5.00
44933;PMS3003;30667;43.614;1.442;2023-08-01T07:11:37;10.50;9.00;4.75
44933;PMS3003;30667;43.614;1.442;2023-08-01T07:14:02;10.00;9.00;5.00
44933;PMS3003;30667;43.614;1.442;2023-08-01T07:16:27;11.25;10.00;5.00
44933;PMS3003;30667;43.614;1.442;2023-08-01T07:18:54;10.00;8.00;4.75
44933;PMS3003;30667;43.614;1.442;2023-08-01T07:21:20;9.60;9.40;5.00
44933;PMS3003;30667;43.614;1.442;2023-08-01T07:23:45;9.00;8.50;5.00
44933;PMS3003;30667;43.614;1.442;2023-08-01T07:26:13;9.00;8.40;4.20
44933;PMS3003;30667;43.614;1.442;2023-08-01T07:28:39;11.50;10.00;5.50
44933;PMS3003;30667;43.614;1.442;2023-08-01T07:31:05;7.50;7.00;4.25
44933;PMS3003;30667;43.614;1.442;2023-08-01T07:33:31;8.00;8.00;5.00
44933;PMS3003;30667;43.614;1.442;2023-08-01T07:35:58;9.60;9.00;5.20
44933;PMS3003;30667;43.614;1.442;2023-08-01T07:38:23;9.00;6.75;4.00
44933;PMS3003;30667;43.614;1.442;2023-08-01T07:40:49;10.25;8.50;3.25
44933;PMS3003;30667;43.614;1.442;2023-08-01T07:43:15;8.80;8.40;4.60
44933;PMS3003;30667;43.614;1.442;2023-08-01T07:45:41;9.50;8.75;5.00
44933;PMS3003;30667;43.614;1.442;2023-08-01T07:48:06;9.80;8.40;4.60
44933;PMS3003;30667;43.614;1.442;2023-08-01T07:50:32;9.00;8.75;5.00
44933;PMS3003;30667;43.614;1.442;2023-08-01T07:52:57;9.75;8.75;4.50
44933;PMS3003;30667;43.614;1.442;2023-08-01T07:55:23;7.20;7.20;4.00
44933;PMS3003;30667;43.614;1.442;2023-08-01T07:57:49;8.00;8.00;4.25
44933;PMS3003;30667;43.614;1.442;2023-08-01T08:00:14;8.25;8.00;4.00
44933;PMS3003;30667;43.614;1.442;2023-08-01T08:02:44;9.00;8.80;4.00
44933;PMS3003;30667;43.614;1.442;2023-08-01T08:05:10;9.00;8.00;4.40
44933;PMS3003;30667;43.614;1.442;2023-08-01T08:07:36;9.75;7.75;4.00
44933;PMS3003;30667;43.614;1.442;2023-08-01T08:10:02;8.20;7.60;3.80
44933;PMS3003;30667;43.614;1.442;2023-08-01T08:12:31;9.00;8.40;4.00
44933;PMS3003;30667;43.614;1.442;2023-08-01T08:14:57;10.60;10.00;5.00
44933;PMS3003;30667;43.614;1.442;2023-08-01T08:17:22;8.25;8.00;4.75
44933;PMS3003;30667;43.614;1.442;2023-08-01T08:19:48;8.50;7.50;4.00
44933;PMS3003;30667;43.614;1.442;2023-08-01T08:22:13;5.75;5.75;3.00
44933;PMS3003;30667;43.614;1.442;2023-08-01T08:24:38;8.00;8.00;4.00
44933;PMS3003;30667;43.614;1.442;2023-08-01T08:27:04;8.25;8.00;4.75
44933;PMS3003;30667;43.614;1.442;2023-08-01T08:29:31;7.20;6.80;3.00
44933;PMS3003;30667;43.614;1.442;2023-08-01T08:31:57;6.00;6.00;3.00
44933;PMS3003;30667;43.614;1.442;2023-08-01T08:34:22;8.25;7.00;3.50
44933;PMS3003;30667;43.614;1.442;2023-08-01T08:36:48;6.00;6.00;3.00
44933;PMS3003;30667;43.614;1.442;2023-08-01T08:39:15;7.20;7.00;3.00
44933;PMS3003;30667;43.614;1.442;2023-08-01T08:41:47;7.20;7.00;3.00
44933;PMS3003;30667;43.614;1.442;2023-08-01T08:44:17;7.80;5.60;2.60
44933;PMS3003;30667;43.614;1.442;2023-08-01T08:46:52;7.20;7.20;3.20
44933;PMS3003;30667;43.614;1.442;2023-08-01T08:49:21;6.60;6.00;3.00
44933;PMS3003;30667;43.614;1.442;2023-08-01T08:51:47;7.40;6.80;3.80
44933;PMS3003;30667;43.614;1.442;2023-08-01T08:54:14;7.80;7.00;3.60
44933;PMS3003;30667;43.614;1.442;2023-08-01T08:56:41;6.00;5.80;2.60
44933;PMS3003;30667;43.614;1.442;2023-08-01T08:59:07;5.25;5.00;2.00
44933;PMS3003;30667;43.614;1.442;2023-08-01T09:01:35;6.80;5.80;2.40
44933;PMS3003;30667;43.614;1.442;2023-08-01T09:04:01;5.60;5.00;2.00
44933;PMS3003;30667;43.614;1.442;2023-08-01T09:06:30;5.00;5.00;2.00
44933;PMS3003;30667;43.614;1.442;2023-08-01T09:11:41;6.00;6.00;3.00
44933;PMS3003;30667;43.614;1.442;2023-08-01T09:14:10;6.00;5.00;2.60
44933;PMS3003;30667;43.614;1.442;2023-08-01T09:16:36;6.00;5.00;3.00
44933;PMS3003;30667;43.614;1.442;2023-08-01T09:19:02;5.20;5.00;2.40
44933;PMS3003;30667;43.614;1.442;2023-08-01T09:21:30;7.25;5.00;3.00
44933;PMS3003;30667;43.614;1.442;2023-08-01T09:24:10;4.40;4.40;2.00
44933;PMS3003;30667;43.614;1.442;2023-08-01T09:26:36;6.80;6.00;2.40
44933;PMS3003;30667;43.614;1.442;2023-08-01T09:29:02;5.50;5.00;2.00
44933;PMS3003;30667;43.614;1.442;2023-08-01T09:31:31;5.25;5.25;1.75
44933;PMS3003;30667;43.614;1.442;2023-08-01T09:34:02;4.00;4.00;2.00
44933;PMS3003;30667;43.614;1.442;2023-08-01T09:36:31;6.00;5.00;2.00
44933;PMS3003;30667;43.614;1.442;2023-08-01T09:38:58;4.00;4.00;1.80
44933;PMS3003;30667;43.614;1.442;2023-08-01T09:41:24;4.00;4.00;2.00
44933;PMS3003;30667;43.614;1.442;2023-08-01T09:43:50;4.50;4.00;2.00
44933;PMS3003;30667;43.614;1.442;2023-08-01T09:46:15;5.00;5.00;2.00
44933;PMS3003;30667;43.614;1.442;2023-08-01T09:48:41;5.00;5.00;2.25
44933;PMS3003;30667;43.614;1.442;2023-08-01T09:51:07;5.25;5.00;2.00
44933;PMS3003;30667;43.614;1.442;2023-08-01T09:53:33;4.20;4.20;2.00
44933;PMS3003;30667;43.614;1.442;2023-08-01T09:56:02;4.20;4.20;2.00
44933;PMS3003;30667;43.614;1.442;2023-08-01T09:58:32;4.40;4.00;1.00
44933;PMS3003;30667;43.614;1.442;2023-08-01T10:00:59;4.00;4.00;2.00
44933;PMS3003;30667;43.614;1.442;2023-08-01T10:03:29;6.00;6.00;2.80
44933;PMS3003;30667;43.614;1.442;2023-08-01T10:05:55;11.80;10.00;5.00
44933;PMS3003;30667;43.614;1.442;2023-08-01T10:08:21;11.20;10.40;6.60
44933;PMS3003;30667;43.614;1.442;2023-08-01T10:10:47;27.00;22.00;13.60
44933;PMS3003;30667;43.614;1.442;2023-08-01T10:13:13;17.80;14.40;9.80
44933;PMS3003;30667;43.614;1.442;2023-08-01T10:15:40;8.40;8.00;4.00
44933;PMS3003;30667;43.614;1.442;2023-08-01T10:18:06;11.00;10.20;6.60
44933;PMS3003;30667;43.614;1.442;2023-08-01T10:20:36;8.20;7.40;4.00
44933;PMS3003;30667;43.614;1.442;2023-08-01T10:23:02;9.40;7.00;2.80
44933;PMS3003;30667;43.614;1.442;2023-08-01T10:25:29;8.00;7.80;3.20
44933;PMS3003;30667;43.614;1.442;2023-08-01T10:28:05;5.60;4.60;2.00
44933;PMS3003;30667;43.614;1.442;2023-08-01T10:30:31;6.20;4.00;2.00
44933;PMS3003;30667;43.614;1.442;2023-08-01T10:32:57;4.00;4.00;1.25
44933;PMS3003;30667;43.614;1.442;2023-08-01T10:35:34;5.00;4.20;1.20
44933;PMS3003;30667;43.614;1.442;2023-08-01T10:38:04;3.00;3.00;1.00
44933;PMS3003;30667;43.614;1.442;2023-08-01T10:40:47;3.00;3.00;1.00
44933;PMS3003;30667;43.614;1.442;2023-08-01T10:43:20;3.60;3.60;1.40
44933;PMS3003;30667;43.614;1.442;2023-08-01T10:45:47;4.00;3.80;1.00
44933;PMS3003;30667;43.614;1.442;2023-08-01T10:48:12;4.00;4.00;1.00
44933;PMS3003;30667;43.614;1.442;2023-08-01T10:50:38;3.20;2.80;1.00
44933;PMS3003;30667;43.614;1.442;2023-08-01T10:53:05;3.00;3.00;0.00
44933;PMS3003;30667;43.614;1.442;2023-08-01T10:55:43;4.00;4.00;1.00
44933;PMS3003;30667;43.614;1.442;2023-08-01T10:58:12;3.80;3.00;1.00
44933;PMS3003;30667;43.614;1.442;2023-08-01T11:00:38;4.60;3.60;1.00
44933;PMS3003;30667;43.614;1.442;2023-08-01T11:03:04;3.50;3.00;1.00
44933;PMS3003;30667;43.614;1.442;2023-08-01T11:05:29;3.00;3.00;1.00
44933;PMS3003;30667;43.614;1.442;2023-08-01T11:10:21;5.00;3.20;1.00
44933;PMS3003;30667;43.614;1.442;2023-08-01T11:12:47;4.50;3.75;1.00
44933;PMS3003;30667;43.614;1.442;2023-08-01T11:15:13;4.40;4.40;1.00
44933;PMS3003;30667;43.614;1.442;2023-08-01T11:17:40;3.20;3.00;1.00
44933;PMS3003;30667;43.614;1.442;2023-08-01T11:20:12;2.00;2.00;1.00
44933;PMS3003;30667;43.614;1.442;2023-08-01T11:22:49;2.40;2.40;0.20
44933;PMS3003;30667;43.614;1.442;2023-08-01T11:25:16;3.60;3.20;1.00
44933;PMS3003;30667;43.614;1.442;2023-08-01T11:27:41;2.25;2.00;1.00
44933;PMS3003;30667;43.614;1.442;2023-08-01T11:30:07;3.75;3.00;1.00
44933;PMS3003;30667;43.614;1.442;2023-08-01T11:32:36;4.00;4.00;1.00
44933;PMS3003;30667;43.614;1.442;2023-08-01T11:35:03;4.00;3.80;1.00
44933;PMS3003;30667;43.614;1.442;2023-08-01T11:37:30;4.00;4.00;1.00
44933;PMS3003;30667;43.614;1.442;2023-08-01T11:39:55;4.20;3.00;1.00
44933;PMS3003;30667;43.614;1.442;2023-08-01T11:42:22;3.00;3.00;1.00
44933;PMS3003;30667;43.614;1.442;2023-08-01T11:44:48;5.25;4.00;1.00
44933;PMS3003;30667;43.614;1.442;2023-08-01T11:47:13;3.00;3.00;1.00
44933;PMS3003;30667;43.614;1.442;2023-08-01T11:49:45;3.60;2.60;0.80
44933;PMS3003;30667;43.614;1.442;2023-08-01T11:52:24;6.20;4.80;1.00
44933;PMS3003;30667;43.614;1.442;2023-08-01T11:54:51;3.80;3.00;0.40
44933;PMS3003;30667;43.614;1.442;2023-08-01T11:57:16;5.00;4.00;1.00
44933;PMS3003;30667;43.614;1.442;2023-08-01T11:59:52;3.00;3.00;1.00
44933;PMS3003;30667;43.614;1.442;2023-08-01T12:02:23;4.40;4.40;1.00
44933;PMS3003;30667;43.614;1.442;2023-08-01T12:04:55;4.00;4.00;1.00
44933;PMS3003;30667;43.614;1.442;2023-08-01T12:07:20;4.50;4.00;1.50
44933;PMS3003;30667;43.614;1.442;2023-08-01T12:09:59;4.80;4.00;1.00
44933;PMS3003;30667;43.614;1.442;2023-08-01T12:12:28;4.00;4.00;2.00
44933;PMS3003;30667;43.614;1.442;2023-08-01T12:14:54;3.20;3.20;1.00
44933;PMS3003;30667;43.614;1.442;2023-08-01T12:17:20;4.00;3.20;1.40
44933;PMS3003;30667;43.614;1.442;2023-08-01T12:19:47;3.80;3.00;1.00
44933;PMS3003;30667;43.614;1.442;2023-08-01T12:22:13;3.50;3.50;1.00
44933;PMS3003;30667;43.614;1.442;2023-08-01T12:24:41;3.00;3.00;1.00
44933;PMS3003;30667;43.614;1.442;2023-08-01T12:27:09;3.75;3.75;1.00
44933;PMS3003;30667;43.614;1.442;2023-08-01T12:29:35;3.60;3.00;1.00
44933;PMS3003;30667;43.614;1.442;2023-08-01T12:32:03;3.75;3.50;1.00
44933;PMS3003;30667;43.614;1.442;2023-08-01T12:34:29;4.00;4.00;1.00
44933;PMS3003;30667;43.614;1.442;2023-08-01T12:36:55;2.00;2.00;1.00
44933;PMS3003;30667;43.614;1.442;2023-08-01T12:39:20;3.25;3.25;1.00
44933;PMS3003;30667;43.614;1.442;2023-08-01T12:41:46;2.75;2.25;0.50
44933;PMS3003;30667;43.614;1.442;2023-08-01T12:44:11;3.00;3.00;1.00
44933;PMS3003;30667;43.614;1.442;2023-08-01T12:46:40;3.00;2.40;1.00
44933;PMS3003;30667;43.614;1.442;2023-08-01T12:49:06;4.00;3.00;1.00
44933;PMS3003;30667;43.614;1.442;2023-08-01T12:51:31;3.25;3.00;0.00
44933;PMS3003;30667;43.614;1.442;2023-08-01T12:53:56;3.00;2.00;0.25
44933;PMS3003;30667;43.614;1.442;2023-08-01T12:56:22;3.25;3.00;0.75
44933;PMS3003;30667;43.614;1.442;2023-08-01T12:58:47;2.75;2.75;0.25
44933;PMS3003;30667;43.614;1.442;2023-08-01T13:01:13;1.50;1.50;0.00
44933;PMS3003;30667;43.614;1.442;2023-08-01T13:03:38;1.00;1.00;0.00
44933;PMS3003;30667;43.614;1.442;2023-08-01T13:06:03;1.25;1.25;0.00
44933;PMS3003;30667;43.614;1.442;2023-08-01T13:08:29;1.25;1.25;0.00
44933;PMS3003;30667;43.614;1.442;2023-08-01T13:10:54;1.00;1.00;0.00
44933;PMS3003;30667;43.614;1.442;2023-08-01T13:13:19;1.00;1.00;0.00
44933;PMS3003;30667;43.614;1.442;2023-08-01T13:15:45;0.00;0.00;0.00
44933;PMS3003;30667;43.614;1.442;2023-08-01T13:18:10;0.00;0.00;0.00
44933;PMS3003;30667;43.614;1.442;2023-08-01T13:20:36;2.75;2.00;0.00
44933;PMS3003;30667;43.614;1.442;2023-08-01T13:23:01;1.00;1.00;0.00
44933;PMS3003;30667;43.614;1.442;2023-08-01T13:25:28;1.80;1.40;0.00
44933;PMS3003;30667;43.614;1.442;2023-08-01T13:27:53;1.75;1.75;0.50
44933;PMS3003;30667;43.614;1.442;2023-08-01T13:30:19;3.50;2.00;0.00
44933;PMS3003;30667;43.614;1.442;2023-08-01T13:32:45;1.80;1.80;0.00
44933;PMS3003;30667;43.614;1.442;2023-08-01T13:35:10;2.00;2.00;0.00
44933;PMS3003;30667;43.614;1.442;2023-08-01T13:37:36;2.50;1.75;0.00
44933;PMS3003;30667;43.614;1.442;2023-08-01T13:40:02;2.20;1.80;0.00
44933;PMS3003;30667;43.614;1.442;2023-08-01T13:42:27;3.00;2.80;0.00
44933;PMS3003;30667;43.614;1.442;2023-08-01T13:44:53;2.00;2.00;1.00
44933;PMS3003;30667;43.614;1.442;2023-08-01T13:47:19;1.80;1.80;0.00
44933;PMS3003;30667;43.614;1.442;2023-08-01T13:49:45;2.75;2.00;1.00
44933;PMS3003;30667;43.614;1.442;2023-08-01T13:52:10;3.25;2.00;0.00
44933;PMS3003;30667;43.614;1.442;2023-08-01T13:54:35;2.00;2.00;0.00
44933;PMS3003;30667;43.614;1.442;2023-08-01T13:57:01;2.25;2.25;0.25
44933;PMS3003;30667;43.614;1.442;2023-08-01T13:59:26;4.00;3.00;1.00
44933;PMS3003;30667;43.614;1.442;2023-08-01T14:01:52;1.75;1.00;0.00
44933;PMS3003;30667;43.614;1.442;2023-08-01T14:04:18;1.25;1.25;0.00
44933;PMS3003;30667;43.614;1.442;2023-08-01T14:06:43;2.00;2.00;0.00
44933;PMS3003;30667;43.614;1.442;2023-08-01T14:09:09;2.00;2.00;0.00
44933;PMS3003;30667;43.614;1.442;2023-08-01T14:11:35;2.75;2.50;0.00
44933;PMS3003;30667;43.614;1.442;2023-08-01T14:14:01;2.60;2.40;0.60
44933;PMS3003;30667;43.614;1.442;2023-08-01T14:16:26;1.75;1.75;0.00
44933;PMS3003;30667;43.614;1.442;2023-08-01T14:18:51;2.00;2.00;0.00